createdAt,value
2023-03-06T00:00:57.104Z,47.10
2023-03-06T00:03:27.893Z,45.95
2023-03-06T00:05:58.041Z,47.75
2023-03-06T00:08:27.414Z,48.40
2023-03-06T00:10:56.349Z,50.30
2023-03-06T00:13:24.682Z,51.33
2023-03-06T00:15:52.790Z,55.83
2023-03-06T00:18:20.850Z,55.78
2023-03-06T00:20:49.028Z,54.22
2023-03-06T00:23:16.696Z,53.55
2023-03-06T00:25:45.930Z,54.90
2023-03-06T00:28:15.779Z,52.17
2023-03-06T00:30:46.038Z,53.47
2023-03-06T00:33:14.285Z,54.17
2023-03-06T00:35:42.496Z,54.10
2023-03-06T00:38:12.690Z,57.03
2023-03-06T00:40:40.736Z,54.83
2023-03-06T00:43:08.896Z,51.10
2023-03-06T00:45:37.322Z,52.20
2023-03-06T00:48:05.404Z,50.50
2023-03-06T00:50:35.287Z,46.92
2023-03-06T00:53:02.913Z,51.15
2023-03-06T00:55:31.277Z,48.25
2023-03-06T00:57:59.278Z,48.22
2023-03-06T01:00:29.167Z,47.17
2023-03-06T01:02:57.800Z,45.38
2023-03-06T01:05:25.619Z,48.85
2023-03-06T01:07:53.587Z,46.38
2023-03-06T01:10:21.353Z,46.08
2023-03-06T01:12:49.453Z,47.03
2023-03-06T01:15:16.964Z,45.65
2023-03-06T01:17:45.263Z,50.25
2023-03-06T01:20:16.179Z,48.45
2023-03-06T01:22:44.466Z,50.00
2023-03-06T01:25:12.566Z,47.90
2023-03-06T01:27:40.509Z,47.90
2023-03-06T01:30:12.465Z,48.05
2023-03-06T01:32:40.500Z,48.92
2023-03-06T01:35:09.498Z,49.53
2023-03-06T01:37:38.050Z,49.85
2023-03-06T01:40:08.202Z,47.90
2023-03-06T01:42:35.753Z,47.17
2023-03-06T01:45:27.018Z,48.60
2023-03-06T01:47:55.467Z,48.13
2023-03-06T01:50:23.824Z,49.25
2023-03-06T01:52:55.774Z,48.53
2023-03-06T01:55:27.866Z,49.35
2023-03-06T01:57:59.285Z,49.20
2023-03-06T02:00:29.972Z,48.95
2023-03-06T02:03:17.135Z,47.40
2023-03-06T02:05:45.924Z,46.33
2023-03-06T02:08:18.031Z,46.33
2023-03-06T02:11:17.355Z,44.53
2023-03-06T02:13:46.769Z,41.72
2023-03-06T02:16:16.209Z,42.05
2023-03-06T02:18:47.316Z,38.38
2023-03-06T02:21:22.588Z,40.45
2023-03-06T02:24:09.263Z,41.15
2023-03-06T02:26:38.641Z,42.25
2023-03-06T02:29:09.568Z,41.45
2023-03-06T02:31:37.627Z,37.65
2023-03-06T02:34:28.104Z,39.15
2023-03-06T02:37:00.461Z,40.00
2023-03-06T02:39:32.342Z,40.08
2023-03-06T02:42:00.113Z,38.83
2023-03-06T02:44:31.739Z,41.70
2023-03-06T02:46:59.864Z,41.15
2023-03-06T02:49:27.900Z,39.78
2023-03-06T02:51:56.250Z,40.13
2023-03-06T02:54:23.792Z,37.53
2023-03-06T02:56:51.733Z,38.72
2023-03-06T02:59:19.319Z,38.67
2023-03-06T03:01:48.116Z,40.38
2023-03-06T03:04:16.224Z,39.83
2023-03-06T03:06:43.827Z,41.33
2023-03-06T03:09:12.836Z,40.25
2023-03-06T03:11:40.626Z,40.45
2023-03-06T03:14:08.165Z,42.63
2023-03-06T03:16:37.539Z,40.28
2023-03-06T03:19:07.135Z,42.08
2023-03-06T03:21:35.703Z,43.30
2023-03-06T03:24:03.719Z,40.05
2023-03-06T03:26:31.707Z,38.45
2023-03-06T03:29:13.391Z,40.72
2023-03-06T03:31:41.713Z,39.20
2023-03-06T03:34:09.398Z,41.35
2023-03-06T03:36:40.422Z,38.50
2023-03-06T03:39:11.093Z,40.17
2023-03-06T03:41:39.272Z,39.95
2023-03-06T03:44:09.280Z,39.78
2023-03-06T03:46:38.103Z,39.17
2023-03-06T03:49:10.194Z,38.45
2023-03-06T03:51:38.959Z,39.60
2023-03-06T03:54:07.247Z,38.20
2023-03-06T03:56:41.854Z,41.05
2023-03-06T03:59:24.105Z,39.10
2023-03-06T04:02:30.003Z,39.72
2023-03-06T04:05:14.892Z,39.10
2023-03-06T04:07:44.294Z,37.92
2023-03-06T04:10:13.591Z,40.78
2023-03-06T04:12:42.494Z,41.03
2023-03-06T04:15:12.023Z,40.90
2023-03-06T04:17:40.466Z,38.80
2023-03-06T04:20:14.498Z,40.08
2023-03-06T04:22:42.428Z,42.72
2023-03-06T04:25:12.323Z,42.67
2023-03-06T04:27:40.349Z,40.25
2023-03-06T04:30:08.499Z,41.70
2023-03-06T04:32:36.960Z,44.97
2023-03-06T04:35:06.553Z,39.63
2023-03-06T04:37:40.384Z,39.00
2023-03-06T04:40:11.991Z,41.80
2023-03-06T04:42:40.289Z,40.72
2023-03-06T04:45:09.155Z,40.95
2023-03-06T04:47:37.196Z,38.80
2023-03-06T04:50:05.921Z,38.97
2023-03-06T04:52:33.981Z,38.65
2023-03-06T04:55:04.260Z,41.63
2023-03-06T04:57:32.209Z,39.60
2023-03-06T05:00:00.226Z,41.22
2023-03-06T05:02:28.248Z,41.75
2023-03-06T05:04:56.380Z,40.47
2023-03-06T05:07:23.857Z,41.75
2023-03-06T05:09:51.575Z,43.65
2023-03-06T05:12:19.073Z,46.17
2023-03-06T05:14:48.196Z,47.15
2023-03-06T05:17:16.726Z,49.25
2023-03-06T05:19:44.358Z,46.88
2023-03-06T05:22:12.120Z,47.33
2023-03-06T05:24:39.659Z,50.08
2023-03-06T05:27:07.198Z,50.75
2023-03-06T05:29:35.859Z,56.05
2023-03-06T05:32:03.764Z,55.92
2023-03-06T05:34:32.066Z,55.63
2023-03-06T05:37:01.730Z,55.80
2023-03-06T05:39:29.705Z,54.70
2023-03-06T05:41:58.298Z,56.13
2023-03-06T05:44:31.365Z,59.35
2023-03-06T05:46:59.102Z,58.55
2023-03-06T05:49:27.314Z,57.97
2023-03-06T05:51:55.208Z,61.55
2023-03-06T05:54:24.453Z,60.38
2023-03-06T05:56:51.885Z,59.00
2023-03-06T05:59:20.482Z,58.60
2023-03-06T06:01:48.432Z,62.60
2023-03-06T06:04:15.893Z,59.42
2023-03-06T06:06:43.388Z,61.85
2023-03-06T06:09:13.775Z,61.22
2023-03-06T06:11:45.336Z,62.90
2023-03-06T06:14:12.900Z,60.63
2023-03-06T06:16:40.965Z,63.30
2023-03-06T06:19:08.763Z,62.38
2023-03-06T06:21:36.388Z,62.60
2023-03-06T06:24:04.143Z,64.07
2023-03-06T06:26:31.733Z,63.17
2023-03-06T06:29:00.364Z,61.47
2023-03-06T06:31:28.588Z,60.38
2023-03-06T06:33:57.233Z,61.47
2023-03-06T06:36:25.269Z,61.92
2023-03-06T06:38:53.486Z,61.30
2023-03-06T06:44:14.511Z,59.38
2023-03-06T06:49:33.235Z,52.50
2023-03-06T06:52:01.481Z,54.70
2023-03-06T06:54:29.387Z,54.78
2023-03-06T06:56:57.264Z,52.85
2023-03-06T06:59:24.931Z,50.58
2023-03-06T07:01:53.428Z,48.38
2023-03-06T07:04:21.704Z,53.80
2023-03-06T07:06:49.269Z,57.92
2023-03-06T07:09:17.220Z,59.90
2023-03-06T07:11:45.209Z,58.85
2023-03-06T07:14:13.261Z,55.08
2023-03-06T07:16:41.492Z,57.05
2023-03-06T07:19:09.888Z,54.92
2023-03-06T07:21:38.041Z,58.00
2023-03-06T07:24:06.290Z,55.13
2023-03-06T07:26:34.966Z,55.83
2023-03-06T07:29:04.208Z,54.65
2023-03-06T07:31:32.393Z,56.22
2023-03-06T07:34:00.525Z,57.22
2023-03-06T07:36:29.026Z,58.08
2023-03-06T07:38:57.026Z,55.22
2023-03-06T07:41:24.523Z,55.50
2023-03-06T07:43:52.420Z,56.80
2023-03-06T07:46:20.431Z,58.75
2023-03-06T07:48:47.988Z,54.95
2023-03-06T07:51:19.025Z,56.85
2023-03-06T07:53:47.882Z,57.17
2023-03-06T07:56:16.630Z,55.38
2023-03-06T07:58:46.586Z,56.13
2023-03-06T08:01:20.494Z,57.35
2023-03-06T08:03:50.046Z,58.65
2023-03-06T08:06:27.269Z,55.90
2023-03-06T08:08:56.926Z,56.25
2023-03-06T08:11:30.142Z,56.78
2023-03-06T08:13:58.585Z,57.33
2023-03-06T08:16:28.966Z,56.63
2023-03-06T08:18:57.703Z,54.22
2023-03-06T08:21:28.318Z,53.85
2023-03-06T08:23:56.844Z,55.00
2023-03-06T08:26:30.785Z,53.60
2023-03-06T08:29:00.950Z,54.83
2023-03-06T08:31:36.850Z,58.47
2023-03-06T08:34:12.982Z,56.05
2023-03-06T08:36:41.345Z,59.72
2023-03-06T08:39:09.678Z,58.63
2023-03-06T08:41:38.197Z,61.40
2023-03-06T08:44:05.939Z,58.65
2023-03-06T08:46:34.888Z,56.42
2023-03-06T08:49:03.363Z,59.30
2023-03-06T08:51:31.504Z,57.15
2023-03-06T08:54:00.213Z,59.13
2023-03-06T08:56:31.225Z,55.33
2023-03-06T08:59:01.473Z,56.63
2023-03-06T09:01:36.826Z,57.33
2023-03-06T09:04:07.542Z,55.20
2023-03-06T09:06:38.273Z,55.20
2023-03-06T09:09:07.488Z,54.40
2023-03-06T09:11:36.360Z,54.25
2023-03-06T09:14:05.654Z,57.05
2023-03-06T09:16:33.857Z,53.83
2023-03-06T09:19:01.468Z,55.20
2023-03-06T09:21:29.983Z,56.05
2023-03-06T09:23:57.981Z,55.60
2023-03-06T09:26:39.524Z,53.67
2023-03-06T09:29:12.846Z,52.38
2023-03-06T09:31:40.415Z,52.53
2023-03-06T09:34:08.629Z,53.28
2023-03-06T09:36:53.329Z,53.38
2023-03-06T09:39:24.025Z,51.55
2023-03-06T09:41:52.867Z,54.65
2023-03-06T09:44:27.736Z,52.45
2023-03-06T09:47:14.493Z,49.50
2023-03-06T09:49:48.399Z,45.97
2023-03-06T09:54:54.337Z,45.25
2023-03-06T09:57:27.134Z,45.92
2023-03-06T09:59:58.405Z,45.63
2023-03-06T10:02:37.684Z,45.20
2023-03-06T10:05:12.485Z,46.17
2023-03-06T10:08:03.722Z,44.28
2023-03-06T10:10:44.673Z,45.75
2023-03-06T10:13:25.742Z,43.30
2023-03-06T10:16:00.027Z,42.15
2023-03-06T10:18:27.932Z,39.47
2023-03-06T10:21:18.773Z,41.20
2023-03-06T10:24:28.438Z,38.90
2023-03-06T10:27:31.658Z,38.78
2023-03-06T10:30:32.787Z,44.03
2023-03-06T10:33:39.504Z,41.10
2023-03-06T10:36:13.097Z,41.05
2023-03-06T10:41:13.136Z,43.10
2023-03-06T10:43:44.231Z,40.13
2023-03-06T10:46:26.530Z,43.75
2023-03-06T10:48:59.878Z,38.33
2023-03-06T10:51:29.987Z,35.92
2023-03-06T10:54:01.706Z,35.60
2023-03-06T10:56:33.009Z,37.00
2023-03-06T10:59:17.340Z,37.78
2023-03-06T11:01:48.336Z,38.03
2023-03-06T11:04:30.302Z,37.38
2023-03-06T11:07:15.989Z,39.03
2023-03-06T11:09:56.859Z,38.80
2023-03-06T11:12:32.380Z,39.40
2023-03-06T11:15:17.513Z,41.75
2023-03-06T11:17:55.579Z,41.50
2023-03-06T11:20:51.149Z,41.42
2023-03-06T11:23:22.987Z,39.13
2023-03-06T11:26:02.335Z,39.58
2023-03-06T11:28:33.111Z,36.63
2023-03-06T11:31:17.668Z,36.72
2023-03-06T11:33:53.180Z,37.80
2023-03-06T11:36:28.458Z,34.25
2023-03-06T11:38:56.403Z,36.67
2023-03-06T11:41:54.489Z,32.15
2023-03-06T11:44:43.431Z,35.85
2023-03-06T11:47:22.943Z,36.97
2023-03-06T11:50:04.732Z,36.38
2023-03-06T11:52:48.322Z,31.55
2023-03-06T11:55:23.686Z,34.22
2023-03-06T11:58:29.760Z,34.45
2023-03-06T12:01:00.711Z,35.15
2023-03-06T12:03:39.026Z,32.47
2023-03-06T12:06:12.782Z,30.55
2023-03-06T12:11:24.789Z,31.52
2023-03-06T12:14:20.239Z,31.77
2023-03-06T12:17:10.891Z,30.90
2023-03-06T12:20:19.852Z,28.38
2023-03-06T12:23:15.102Z,30.35
2023-03-06T12:25:50.774Z,29.48
2023-03-06T12:28:50.401Z,29.80
2023-03-06T12:31:31.615Z,29.73
2023-03-06T12:34:15.250Z,29.90
2023-03-06T12:36:48.904Z,28.92
2023-03-06T12:39:22.721Z,27.13
2023-03-06T12:42:06.766Z,25.38
2023-03-06T12:45:01.297Z,27.15
2023-03-06T12:47:31.829Z,28.10
2023-03-06T12:50:03.950Z,26.83
2023-03-06T12:52:34.611Z,24.85
2023-03-06T12:55:08.021Z,28.10
2023-03-06T12:57:35.725Z,24.05
2023-03-06T13:00:04.380Z,24.65
2023-03-06T13:02:47.046Z,24.45
2023-03-06T13:06:03.527Z,23.17
2023-03-06T13:08:40.089Z,25.40
2023-03-06T13:11:23.680Z,26.35
2023-03-06T13:13:51.303Z,23.77
2023-03-06T13:16:18.876Z,24.20
2023-03-06T13:19:14.033Z,25.15
2023-03-06T13:21:42.118Z,24.00
2023-03-06T13:24:18.237Z,23.70
2023-03-06T13:26:45.648Z,24.52
2023-03-06T13:29:38.471Z,23.65
2023-03-06T13:32:17.620Z,23.10
2023-03-06T13:34:50.210Z,24.10
2023-03-06T13:37:23.162Z,24.40
2023-03-06T13:40:00.455Z,22.33
2023-03-06T13:42:30.499Z,22.60
2023-03-06T13:45:07.690Z,22.75
2023-03-06T13:48:25.042Z,23.30
2023-03-06T13:50:52.635Z,26.45
2023-03-06T13:53:35.390Z,23.70
2023-03-06T13:56:16.713Z,24.90
2023-03-06T13:58:57.798Z,24.00
2023-03-06T14:01:59.354Z,25.38
2023-03-06T14:04:49.863Z,26.20
2023-03-06T14:07:24.655Z,26.05
2023-03-06T14:10:02.850Z,25.95
2023-03-06T14:12:35.225Z,26.80
2023-03-06T14:15:22.983Z,25.92
2023-03-06T14:18:00.627Z,26.17
2023-03-06T14:20:49.503Z,26.80
2023-03-06T14:23:26.424Z,25.38
2023-03-06T14:26:15.233Z,27.65
2023-03-06T14:28:46.289Z,28.73
2023-03-06T14:31:18.378Z,27.10
2023-03-06T14:34:07.295Z,27.08
2023-03-06T14:36:43.124Z,25.65
2023-03-06T14:39:15.659Z,25.35
2023-03-06T14:41:43.675Z,24.10
2023-03-06T14:44:23.696Z,25.83
2023-03-06T14:46:55.145Z,26.42
2023-03-06T14:49:26.209Z,24.77
2023-03-06T14:52:00.623Z,26.38
2023-03-06T14:54:32.662Z,24.45
2023-03-06T14:57:13.672Z,25.08
2023-03-06T14:59:51.282Z,25.02
2023-03-06T15:02:24.386Z,26.92
2023-03-06T15:04:58.988Z,26.25
2023-03-06T15:07:30.783Z,26.02
2023-03-06T15:10:00.704Z,24.08
2023-03-06T15:12:31.430Z,25.25
2023-03-06T15:15:00.670Z,24.48
2023-03-06T15:17:38.978Z,24.88
2023-03-06T15:20:28.306Z,24.45
2023-03-06T15:22:56.000Z,23.17
2023-03-06T15:25:30.228Z,21.67
2023-03-06T15:28:01.549Z,22.45
2023-03-06T15:30:29.807Z,23.85
2023-03-06T15:33:19.932Z,19.42
2023-03-06T15:36:18.748Z,18.55
2023-03-06T15:38:47.895Z,19.08
2023-03-06T15:41:36.563Z,19.50
2023-03-06T15:44:15.247Z,19.30
2023-03-06T15:46:43.643Z,21.10
2023-03-06T15:49:18.243Z,20.25
2023-03-06T15:51:46.240Z,22.08
2023-03-06T15:54:14.401Z,21.88
2023-03-06T15:56:44.934Z,21.45
2023-03-06T15:59:33.250Z,21.85
2023-03-06T16:02:11.062Z,20.48
2023-03-06T16:04:39.193Z,19.17
2023-03-06T16:07:07.312Z,16.95
2023-03-06T16:09:34.986Z,18.90
2023-03-06T16:12:04.695Z,19.63
2023-03-06T16:14:32.366Z,20.67
2023-03-06T16:17:00.477Z,20.25
2023-03-06T16:19:28.740Z,19.90
2023-03-06T16:21:56.838Z,21.05
2023-03-06T16:24:26.292Z,20.40
2023-03-06T16:26:55.095Z,20.02
2023-03-06T16:29:25.503Z,20.23
2023-03-06T16:31:56.145Z,19.55
2023-03-06T16:34:25.326Z,19.95
2023-03-06T16:36:53.418Z,20.10
2023-03-06T16:39:23.576Z,22.02
2023-03-06T16:41:51.754Z,21.83
2023-03-06T16:44:20.867Z,20.83
2023-03-06T16:46:50.178Z,22.33
2023-03-06T16:49:22.139Z,21.67
2023-03-06T16:51:50.965Z,23.35
2023-03-06T16:54:19.458Z,22.08
2023-03-06T16:56:47.125Z,21.65
2023-03-06T16:59:15.151Z,23.50
2023-03-06T17:01:43.411Z,23.67
2023-03-06T17:04:11.753Z,25.33
2023-03-06T17:06:41.914Z,22.77
2023-03-06T17:09:14.423Z,23.70
2023-03-06T17:11:44.899Z,24.95
2023-03-06T17:14:13.031Z,22.88
2023-03-06T17:16:42.168Z,23.10
2023-03-06T17:19:14.443Z,25.00
2023-03-06T17:21:43.727Z,23.67
2023-03-06T17:24:12.493Z,23.95
2023-03-06T17:26:40.336Z,24.75
2023-03-06T17:29:09.767Z,23.92
2023-03-06T17:31:37.299Z,24.13
2023-03-06T17:34:05.364Z,25.27
2023-03-06T17:36:33.947Z,25.23
2023-03-06T17:39:03.116Z,25.83
2023-03-06T17:41:32.970Z,26.75
2023-03-06T17:44:01.940Z,26.80
2023-03-06T17:46:33.398Z,26.98
2023-03-06T17:49:01.521Z,29.05
2023-03-06T17:51:29.669Z,27.65
2023-03-06T17:53:58.437Z,26.30
2023-03-06T17:56:27.442Z,28.30
2023-03-06T17:58:57.389Z,30.10
2023-03-06T18:01:30.302Z,28.00
2023-03-06T18:03:59.177Z,28.00
2023-03-06T18:06:30.154Z,25.98
2023-03-06T18:08:58.843Z,27.23
2023-03-06T18:11:27.803Z,26.13
2023-03-06T18:13:56.035Z,28.05
2023-03-06T18:16:26.274Z,33.92
2023-03-06T18:18:56.731Z,34.13
2023-03-06T18:21:25.023Z,36.95
2023-03-06T18:23:52.747Z,38.90
2023-03-06T18:26:28.651Z,39.30
2023-03-06T18:29:01.537Z,44.38
2023-03-06T18:31:39.161Z,49.35
2023-03-06T18:34:10.377Z,53.92
2023-03-06T18:36:39.076Z,63.50
2023-03-06T18:39:09.671Z,65.53
2023-03-06T18:41:38.361Z,65.75
2023-03-06T18:44:06.715Z,62.65
2023-03-06T18:46:37.487Z,55.92
2023-03-06T18:49:06.289Z,54.25
2023-03-06T18:51:35.006Z,51.72
2023-03-06T18:54:04.455Z,44.08
2023-03-06T18:56:32.800Z,39.45
2023-03-06T18:59:03.768Z,49.05
2023-03-06T19:01:32.451Z,52.92
2023-03-06T19:04:02.225Z,41.05
2023-03-06T19:06:30.668Z,42.92
2023-03-06T19:08:58.945Z,42.60
2023-03-06T19:11:27.865Z,41.53
2023-03-06T19:13:55.822Z,43.50
2023-03-06T19:16:27.191Z,41.75
2023-03-06T19:18:55.801Z,38.70
2023-03-06T19:21:26.326Z,39.08
2023-03-06T19:23:55.062Z,35.15
2023-03-06T19:26:23.882Z,36.38
2023-03-06T19:28:52.567Z,34.70
2023-03-06T19:31:25.204Z,36.85
2023-03-06T19:33:53.729Z,35.65
2023-03-06T19:36:26.973Z,33.92
2023-03-06T19:38:59.545Z,33.15
2023-03-06T19:41:28.482Z,31.60
2023-03-06T19:43:59.410Z,34.40
2023-03-06T19:46:27.380Z,31.13
2023-03-06T19:49:01.285Z,28.48
2023-03-06T19:51:29.613Z,30.25
2023-03-06T19:53:57.740Z,29.52
2023-03-06T19:56:29.076Z,28.90
2023-03-06T19:58:57.726Z,29.45
2023-03-06T20:01:27.579Z,29.30
2023-03-06T20:04:00.166Z,29.35
2023-03-06T20:06:33.478Z,31.77
2023-03-06T20:09:04.196Z,29.05
2023-03-06T20:11:32.576Z,31.67
2023-03-06T20:14:02.873Z,29.33
2023-03-06T20:16:31.570Z,30.35
2023-03-06T20:19:01.290Z,30.83
2023-03-06T20:21:32.282Z,29.50
2023-03-06T20:23:59.940Z,30.38
2023-03-06T20:26:29.502Z,28.85
2023-03-06T20:28:58.459Z,31.42
2023-03-06T20:31:29.861Z,30.40
2023-03-06T20:33:59.079Z,29.50
2023-03-06T20:36:30.855Z,28.00
2023-03-06T20:39:03.682Z,28.30
2023-03-06T20:41:31.951Z,30.70
2023-03-06T20:44:02.662Z,31.25
2023-03-06T20:46:33.891Z,31.05
2023-03-06T20:49:01.987Z,25.80
2023-03-06T20:51:32.704Z,28.35
2023-03-06T20:54:02.155Z,30.40
2023-03-06T20:56:32.723Z,27.65
2023-03-06T20:59:00.893Z,29.15
2023-03-06T21:01:28.986Z,32.03
2023-03-06T21:03:57.486Z,29.92
2023-03-06T21:06:26.547Z,28.95
2023-03-06T21:08:56.121Z,33.33
2023-03-06T21:11:24.680Z,33.83
2023-03-06T21:13:53.663Z,34.83
2023-03-06T21:16:24.879Z,33.53
2023-03-06T21:18:55.624Z,30.92
2023-03-06T21:21:26.459Z,33.65
2023-03-06T21:23:54.951Z,32.83
2023-03-06T21:26:24.802Z,34.55
2023-03-06T21:28:53.041Z,32.65
2023-03-06T21:31:22.603Z,35.55
2023-03-06T21:33:51.782Z,34.58
2023-03-06T21:36:21.727Z,33.05
2023-03-06T21:38:52.247Z,33.88
2023-03-06T21:41:27.468Z,34.60
2023-03-06T21:43:56.876Z,32.47
2023-03-06T21:46:25.371Z,32.13
2023-03-06T21:48:54.747Z,33.97
2023-03-06T21:51:24.148Z,33.28
2023-03-06T21:53:53.213Z,34.50
2023-03-06T21:56:25.057Z,32.63
2023-03-06T21:58:53.548Z,33.72
2023-03-06T22:01:24.354Z,32.47
2023-03-06T22:03:53.291Z,33.05
2023-03-06T22:06:25.110Z,34.45
2023-03-06T22:08:56.429Z,32.03
2023-03-06T22:11:26.074Z,33.67
2023-03-06T22:13:54.200Z,32.03
2023-03-06T22:16:22.048Z,32.72
2023-03-06T22:18:51.289Z,34.13
2023-03-06T22:21:20.922Z,33.30
2023-03-06T22:23:54.569Z,31.60
2023-03-06T22:26:23.491Z,33.08
2023-03-06T22:28:51.390Z,32.40
2023-03-06T22:31:24.921Z,33.40
2023-03-06T22:33:58.159Z,32.13
2023-03-06T22:36:27.760Z,31.65
2023-03-06T22:38:58.641Z,33.47
2023-03-06T22:41:27.393Z,31.52
2023-03-06T22:44:03.030Z,32.92
2023-03-06T22:46:32.449Z,32.75
2023-03-06T22:49:00.998Z,32.95
2023-03-06T22:51:29.773Z,34.92
2023-03-06T22:53:58.212Z,36.83
2023-03-06T22:56:25.909Z,36.00
2023-03-06T22:58:53.776Z,35.53
2023-03-06T23:01:25.314Z,34.15
2023-03-06T23:03:59.323Z,34.47
2023-03-06T23:06:33.101Z,34.67
2023-03-06T23:09:04.232Z,34.83
2023-03-06T23:11:32.685Z,33.20
2023-03-06T23:14:19.810Z,39.72
2023-03-06T23:17:05.645Z,35.08
2023-03-06T23:19:52.120Z,37.78
2023-03-06T23:22:38.054Z,37.15
2023-03-06T23:25:24.295Z,35.50
2023-03-06T23:27:52.658Z,36.55
2023-03-06T23:30:20.674Z,36.10
2023-03-06T23:32:48.244Z,36.22
2023-03-06T23:35:15.812Z,38.17
2023-03-06T23:37:43.957Z,40.10
2023-03-06T23:40:13.698Z,38.20
2023-03-06T23:42:41.722Z,39.55
2023-03-06T23:45:09.852Z,39.42
2023-03-06T23:47:37.423Z,39.00
2023-03-06T23:50:05.833Z,42.95
2023-03-06T23:52:33.748Z,41.33
2023-03-06T23:55:01.647Z,39.17
2023-03-06T23:57:30.447Z,38.33
2023-03-06T23:59:58.071Z,37.97
